createdAt,value
2018-06-22T00:01:14.947Z,79.10
2018-06-22T00:03:54.292Z,79.20
2018-06-22T00:06:26.082Z,81.20
2018-06-22T00:09:07.083Z,82.20
2018-06-22T00:11:46.100Z,80.60
2018-06-22T00:14:17.660Z,79.50
2018-06-22T00:16:56.821Z,76.60
2018-06-22T00:19:28.621Z,78.30
2018-06-22T00:22:07.676Z,77.70
2018-06-22T00:24:47.456Z,78.30
2018-06-22T00:27:26.584Z,79.40
2018-06-22T00:29:57.985Z,78.90
2018-06-22T00:32:29.444Z,78.40
2018-06-22T00:35:01.036Z,79.80
2018-06-22T00:37:32.305Z,79.70
2018-06-22T00:40:03.662Z,78.00
2018-06-22T00:42:35.483Z,78.60
2018-06-22T00:45:14.951Z,81.60
2018-06-22T00:47:53.974Z,83.30
2018-06-22T00:50:25.423Z,84.30
2018-06-22T00:52:56.757Z,83.20
2018-06-22T00:55:36.086Z,83.40
2018-06-22T01:00:34.788Z,84.80
2018-06-22T01:03:13.999Z,83.80
2018-06-22T01:05:49.374Z,84.30
2018-06-22T01:08:21.126Z,84.30
2018-06-22T01:10:53.264Z,85.00
2018-06-22T01:13:24.884Z,84.10
2018-06-22T01:16:00.909Z,85.00
2018-06-22T01:18:32.450Z,84.90
2018-06-22T01:21:03.989Z,83.70
2018-06-22T01:23:36.481Z,83.40
2018-06-22T01:26:13.608Z,81.90
2018-06-22T01:28:45.659Z,80.50
2018-06-22T01:31:17.489Z,79.90
2018-06-22T01:33:57.260Z,78.80
2018-06-22T01:38:55.802Z,79.10
2018-06-22T01:41:27.752Z,81.50
2018-06-22T01:43:59.621Z,81.90
2018-06-22T01:46:31.128Z,80.20
2018-06-22T01:49:10.368Z,78.80
2018-06-22T01:51:47.556Z,79.80
2018-06-22T01:54:26.676Z,81.00
2018-06-22T01:56:56.673Z,78.60
2018-06-22T01:59:27.976Z,76.80
2018-06-22T02:04:35.916Z,76.90
2018-06-22T02:07:07.459Z,78.60
2018-06-22T02:09:46.641Z,78.60
2018-06-22T02:12:25.403Z,80.00
2018-06-22T02:14:57.513Z,77.40
2018-06-22T02:17:28.802Z,78.30
2018-06-22T02:20:00.596Z,80.00
2018-06-22T02:22:31.985Z,77.20
2018-06-22T02:25:03.290Z,72.00
2018-06-22T02:27:34.520Z,68.80
2018-06-22T02:30:05.834Z,71.80
2018-06-22T02:32:44.712Z,66.20
2018-06-22T02:35:23.935Z,67.30
2018-06-22T02:37:54.316Z,66.40
2018-06-22T02:40:24.535Z,72.00
2018-06-22T02:43:03.656Z,71.20
2018-06-22T02:45:43.115Z,69.10
2018-06-22T02:48:14.737Z,72.80
2018-06-22T02:50:46.035Z,68.50
2018-06-22T02:53:17.353Z,73.50
2018-06-22T02:55:49.123Z,73.80
2018-06-22T02:58:21.035Z,71.00
2018-06-22T03:00:58.066Z,69.10
2018-06-22T03:03:29.477Z,72.70
2018-06-22T03:06:08.706Z,74.60
2018-06-22T03:08:47.746Z,72.20
2018-06-22T03:11:19.108Z,71.30
2018-06-22T03:13:58.298Z,71.70
2018-06-22T03:16:30.029Z,72.60
2018-06-22T03:19:09.051Z,73.30
2018-06-22T03:21:48.095Z,69.80
2018-06-22T03:24:19.596Z,68.10
2018-06-22T03:26:56.603Z,68.20
2018-06-22T03:29:35.609Z,71.70
2018-06-22T03:32:14.662Z,69.00
2018-06-22T03:35:56.847Z,65.90
2018-06-22T03:38:28.096Z,65.60
2018-06-22T03:40:59.847Z,63.70
2018-06-22T03:43:32.110Z,62.20
2018-06-22T03:46:04.180Z,57.70
2018-06-22T03:48:43.328Z,58.10
2018-06-22T03:51:15.248Z,55.80
2018-06-22T03:53:55.046Z,55.20
2018-06-22T03:56:33.754Z,57.40
2018-06-22T03:59:13.041Z,56.50
2018-06-22T04:01:44.461Z,56.70
2018-06-22T04:04:18.371Z,56.10
2018-06-22T04:06:57.668Z,56.70
2018-06-22T04:09:29.595Z,57.20
2018-06-22T04:12:01.216Z,62.10
2018-06-22T04:14:33.057Z,61.50
2018-06-22T04:17:10.677Z,63.50
2018-06-22T04:19:42.495Z,62.90
2018-06-22T04:22:12.517Z,62.40
2018-06-22T04:24:44.216Z,59.40
2018-06-22T04:27:14.713Z,58.70
2018-06-22T04:29:46.423Z,57.30
2018-06-22T04:32:16.596Z,58.80
2018-06-22T04:34:52.283Z,59.90
2018-06-22T04:37:24.513Z,60.80
2018-06-22T04:42:33.193Z,59.60
2018-06-22T04:45:05.821Z,59.10
2018-06-22T04:47:36.153Z,60.60
2018-06-22T04:52:44.780Z,63.20
2018-06-22T04:55:17.949Z,63.00
2018-06-22T04:57:49.496Z,63.30
2018-06-22T05:00:20.598Z,58.80
2018-06-22T05:02:52.707Z,61.10
2018-06-22T05:05:29.207Z,59.40
2018-06-22T05:08:08.536Z,60.50
2018-06-22T05:10:48.251Z,62.40
2018-06-22T05:13:27.389Z,54.90
2018-06-22T05:16:07.350Z,55.60
2018-06-22T05:18:47.234Z,55.40
2018-06-22T05:21:27.429Z,55.80
2018-06-22T05:24:06.651Z,55.40
2018-06-22T05:26:45.723Z,50.80
2018-06-22T05:29:24.801Z,50.80
2018-06-22T05:32:04.153Z,48.90
2018-06-22T05:34:43.556Z,47.90
2018-06-22T05:37:22.714Z,45.00
2018-06-22T05:40:01.798Z,43.80
2018-06-22T05:42:39.831Z,41.10
2018-06-22T05:45:19.070Z,36.90
2018-06-22T05:47:56.439Z,37.60
2018-06-22T05:50:35.468Z,36.40
2018-06-22T05:53:14.711Z,35.80
2018-06-22T05:55:53.821Z,34.30
2018-06-22T05:58:25.120Z,35.30
2018-06-22T06:00:56.990Z,33.30
2018-06-22T06:03:28.985Z,32.60
2018-06-22T06:06:09.097Z,30.50
2018-06-22T06:08:48.849Z,30.30
2018-06-22T06:11:28.175Z,29.30
2018-06-22T06:14:07.677Z,30.50
2018-06-22T06:16:46.672Z,31.20
2018-06-22T06:19:25.899Z,32.40
2018-06-22T06:22:05.241Z,34.10
2018-06-22T06:24:44.747Z,36.10
2018-06-22T06:27:24.045Z,35.10
2018-06-22T06:30:00.936Z,36.20
2018-06-22T06:32:39.838Z,35.40
2018-06-22T06:35:19.479Z,37.40
2018-06-22T06:38:00.878Z,38.30
2018-06-22T06:40:40.083Z,38.40
2018-06-22T06:43:18.979Z,40.20
2018-06-22T06:45:58.349Z,41.80
2018-06-22T06:48:37.663Z,42.00
2018-06-22T06:51:17.145Z,41.90
2018-06-22T06:53:56.396Z,42.40
2018-06-22T06:56:35.585Z,43.10
2018-06-22T06:59:14.498Z,42.70
2018-06-22T07:01:53.607Z,39.20
2018-06-22T07:04:33.100Z,41.50
2018-06-22T07:07:13.436Z,37.70
2018-06-22T07:09:52.699Z,39.50
2018-06-22T07:12:31.516Z,39.90
2018-06-22T07:15:11.168Z,40.70
2018-06-22T07:17:51.743Z,42.40
2018-06-22T07:20:28.046Z,41.10
2018-06-22T07:23:06.113Z,42.00
2018-06-22T07:25:43.072Z,42.40
2018-06-22T07:28:14.703Z,43.70
2018-06-22T07:30:53.682Z,42.40
2018-06-22T07:33:26.920Z,42.20
2018-06-22T07:36:01.958Z,43.70
2018-06-22T07:38:37.825Z,42.70
2018-06-22T07:41:10.176Z,43.00
2018-06-22T07:43:44.478Z,42.70
2018-06-22T07:46:17.226Z,42.60
2018-06-22T07:48:49.456Z,42.10
2018-06-22T07:51:21.637Z,41.90
2018-06-22T07:53:58.777Z,41.40
2018-06-22T07:56:31.892Z,41.70
2018-06-22T07:59:03.755Z,41.70
2018-06-22T08:01:35.156Z,43.20
2018-06-22T08:04:44.566Z,42.90
2018-06-22T08:07:16.226Z,43.20
2018-06-22T08:09:47.926Z,41.20
2018-06-22T08:12:19.150Z,41.20
2018-06-22T08:15:10.856Z,42.10
2018-06-22T08:17:41.260Z,42.90
2018-06-22T08:20:13.896Z,44.00
2018-06-22T08:22:45.327Z,42.50
2018-06-22T08:25:55.246Z,42.80
2018-06-22T08:28:26.970Z,42.60
2018-06-22T08:30:57.316Z,42.10
2018-06-22T08:33:28.496Z,42.00
2018-06-22T08:35:59.306Z,42.70
2018-06-22T08:38:29.656Z,41.80
2018-06-22T08:41:00.436Z,42.20
2018-06-22T08:43:32.155Z,40.30
2018-06-22T08:46:04.166Z,40.80
2018-06-22T08:48:35.726Z,40.20
2018-06-22T08:51:07.476Z,38.10
2018-06-22T08:53:46.623Z,35.40
2018-06-22T08:56:20.683Z,32.80
2018-06-22T08:58:59.813Z,30.50
2018-06-22T09:01:38.992Z,29.00
2018-06-22T09:04:14.610Z,28.50
2018-06-22T09:06:46.760Z,27.50
2018-06-22T09:09:19.004Z,26.60
2018-06-22T09:11:59.964Z,24.90
2018-06-22T09:14:39.578Z,23.60
2018-06-22T09:17:18.857Z,22.80
2018-06-22T09:19:58.483Z,23.20
2018-06-22T09:22:38.310Z,22.80
2018-06-22T09:25:17.959Z,24.30
2018-06-22T09:27:57.738Z,22.40
2018-06-22T09:30:37.213Z,22.10
2018-06-22T09:33:16.823Z,21.30
2018-06-22T09:35:57.074Z,22.00
2018-06-22T09:38:36.488Z,21.50
2018-06-22T09:41:16.455Z,21.10
2018-06-22T09:43:55.585Z,21.10
2018-06-22T09:46:34.879Z,20.60
2018-06-22T09:51:54.353Z,21.50
2018-06-22T09:54:34.036Z,21.00
2018-06-22T09:57:06.006Z,20.80
2018-06-22T09:59:43.231Z,21.30
2018-06-22T10:02:22.669Z,19.90
2018-06-22T10:05:02.094Z,20.10
2018-06-22T10:10:21.377Z,18.40
2018-06-22T10:13:00.662Z,18.40
2018-06-22T10:15:40.383Z,17.70
2018-06-22T10:18:12.196Z,18.20
2018-06-22T10:23:23.035Z,17.80
2018-06-22T10:26:02.590Z,16.80
2018-06-22T10:28:41.690Z,17.10
2018-06-22T10:31:21.681Z,17.80
2018-06-22T10:34:01.769Z,17.70
2018-06-22T10:36:43.142Z,17.80
2018-06-22T10:39:24.230Z,17.60
2018-06-22T10:42:04.097Z,17.40
2018-06-22T10:45:47.065Z,18.20
2018-06-22T10:48:26.967Z,19.20
2018-06-22T10:51:06.679Z,18.50
2018-06-22T10:53:46.335Z,18.60
2018-06-22T10:56:26.244Z,18.80
2018-06-22T10:59:06.258Z,17.80
2018-06-22T11:01:46.579Z,17.70
2018-06-22T11:04:27.251Z,18.20
2018-06-22T11:07:07.401Z,17.80
2018-06-22T11:09:47.508Z,20.10
2018-06-22T11:12:24.963Z,20.60
2018-06-22T11:15:01.023Z,21.20
2018-06-22T11:17:39.296Z,21.10
2018-06-22T11:20:19.441Z,19.90
2018-06-22T11:22:59.709Z,18.90
2018-06-22T11:25:40.790Z,17.80
2018-06-22T11:28:21.293Z,21.30
2018-06-22T11:31:01.220Z,24.00
2018-06-22T11:33:41.155Z,26.50
2018-06-22T11:36:20.422Z,28.50
2018-06-22T11:39:00.793Z,28.40
2018-06-22T11:41:33.679Z,28.30
2018-06-22T11:44:13.965Z,29.60
2018-06-22T11:46:54.207Z,32.40
2018-06-22T11:49:34.772Z,32.00
2018-06-22T11:52:11.572Z,33.50
2018-06-22T11:54:51.935Z,33.80
2018-06-22T11:57:31.483Z,34.20
2018-06-22T12:00:11.954Z,33.30
2018-06-22T12:02:44.067Z,34.30
2018-06-22T12:05:24.979Z,31.80
2018-06-22T12:08:05.500Z,30.80
2018-06-22T12:10:45.501Z,31.40
2018-06-22T12:13:25.551Z,32.50
2018-06-22T12:16:05.685Z,32.10
2018-06-22T12:18:45.581Z,33.00
2018-06-22T12:21:25.946Z,33.20
2018-06-22T12:24:06.228Z,33.50
2018-06-22T12:26:45.848Z,34.60
2018-06-22T12:29:25.708Z,35.00
2018-06-22T12:32:05.708Z,33.80
2018-06-22T12:34:45.873Z,33.10
2018-06-22T12:37:22.998Z,32.50
2018-06-22T12:40:01.164Z,32.70
2018-06-22T12:42:41.450Z,32.60
2018-06-22T12:45:22.414Z,32.70
2018-06-22T12:48:02.649Z,34.40
2018-06-22T12:50:41.116Z,34.90
2018-06-22T12:53:22.088Z,35.50
2018-06-22T12:56:04.541Z,36.10
2018-06-22T12:58:44.724Z,35.40
2018-06-22T13:01:23.151Z,35.90
2018-06-22T13:04:03.227Z,36.00
2018-06-22T13:06:43.039Z,36.10
2018-06-22T13:09:23.369Z,37.70
2018-06-22T13:12:04.387Z,37.80
2018-06-22T13:14:44.189Z,37.90
2018-06-22T13:17:24.458Z,37.10
2018-06-22T13:20:03.459Z,37.50
2018-06-22T13:22:42.290Z,38.10
2018-06-22T13:25:20.799Z,38.20
2018-06-22T13:28:03.895Z,39.50
2018-06-22T13:30:43.557Z,38.50
2018-06-22T13:33:23.739Z,39.10
2018-06-22T13:36:03.947Z,37.90
2018-06-22T13:38:44.742Z,38.20
2018-06-22T13:41:24.697Z,38.70
2018-06-22T13:44:04.503Z,38.60
2018-06-22T13:46:44.318Z,38.40
2018-06-22T13:49:23.646Z,38.90
2018-06-22T13:52:04.086Z,39.60
2018-06-22T13:54:43.821Z,38.80
2018-06-22T13:57:17.447Z,40.00
2018-06-22T13:59:53.836Z,39.40
2018-06-22T14:02:26.268Z,40.70
2018-06-22T14:05:12.507Z,41.40
2018-06-22T14:07:54.639Z,42.40
2018-06-22T14:10:35.932Z,43.60
2018-06-22T14:13:16.346Z,45.30
2018-06-22T14:15:59.933Z,44.80
2018-06-22T14:18:42.786Z,45.90
2018-06-22T14:21:23.110Z,48.80
2018-06-22T14:24:03.432Z,51.00
2018-06-22T14:26:43.590Z,53.70
2018-06-22T14:29:23.946Z,53.00
2018-06-22T14:32:04.115Z,53.50
2018-06-22T14:34:44.199Z,55.70
2018-06-22T14:37:24.004Z,54.10
2018-06-22T14:40:01.873Z,53.80
2018-06-22T14:42:42.605Z,54.10
2018-06-22T14:45:22.660Z,57.20
2018-06-22T14:48:02.918Z,57.60
2018-06-22T14:50:43.352Z,56.00
2018-06-22T14:53:30.660Z,53.90
2018-06-22T14:56:15.112Z,54.90
2018-06-22T14:59:00.930Z,55.10
2018-06-22T15:01:46.300Z,50.50
2018-06-22T15:04:30.946Z,50.40
2018-06-22T15:07:15.744Z,48.70
2018-06-22T15:09:56.059Z,49.10
2018-06-22T15:12:35.765Z,45.90
2018-06-22T15:15:20.787Z,47.00
2018-06-22T15:18:01.618Z,45.80
2018-06-22T15:20:41.756Z,45.20
2018-06-22T15:23:22.536Z,46.10
2018-06-22T15:26:03.134Z,45.60
2018-06-22T15:28:35.543Z,44.60
2018-06-22T15:31:08.305Z,44.50
2018-06-22T15:33:54.567Z,45.10
2018-06-22T15:36:41.268Z,44.10
2018-06-22T15:39:26.120Z,43.20
2018-06-22T15:42:10.666Z,42.80
2018-06-22T15:44:57.590Z,45.20
2018-06-22T15:47:35.848Z,46.80
2018-06-22T15:50:21.217Z,45.10
2018-06-22T15:53:06.189Z,46.30
2018-06-22T15:55:49.460Z,46.60
2018-06-22T15:58:30.670Z,47.90
2018-06-22T16:01:05.301Z,47.90
2018-06-22T16:03:48.294Z,46.50
2018-06-22T16:06:29.195Z,44.60
2018-06-22T16:09:08.961Z,45.10
2018-06-22T16:11:49.019Z,44.10
2018-06-22T16:14:34.964Z,43.30
2018-06-22T16:17:19.528Z,44.60
2018-06-22T16:20:04.965Z,44.00
2018-06-22T16:25:31.343Z,42.60
2018-06-22T16:28:03.902Z,42.10
2018-06-22T16:30:37.301Z,40.10
2018-06-22T16:33:18.647Z,40.60
2018-06-22T16:35:59.641Z,40.60
2018-06-22T16:38:39.489Z,41.60
2018-06-22T16:41:19.775Z,42.20
2018-06-22T16:44:01.707Z,42.00
2018-06-22T16:46:42.107Z,41.30
2018-06-22T16:49:22.336Z,42.30
2018-06-22T16:52:01.731Z,39.90
2018-06-22T16:54:41.439Z,39.60
2018-06-22T16:57:20.747Z,39.40
2018-06-22T16:59:59.999Z,40.70
2018-06-22T17:02:36.428Z,41.00
2018-06-22T17:05:16.340Z,41.60
2018-06-22T17:08:01.119Z,40.80
2018-06-22T17:10:46.356Z,40.60
2018-06-22T17:13:31.084Z,41.20
2018-06-22T17:16:16.325Z,40.30
2018-06-22T17:18:58.929Z,39.90
2018-06-22T17:21:39.560Z,39.00
2018-06-22T17:24:19.563Z,39.20
2018-06-22T17:26:59.480Z,40.40
2018-06-22T17:29:39.968Z,39.30
2018-06-22T17:32:20.482Z,38.70
2018-06-22T17:35:01.957Z,39.50
2018-06-22T17:37:42.119Z,40.30
2018-06-22T17:40:22.315Z,40.10
2018-06-22T17:43:02.606Z,39.20
2018-06-22T17:45:42.977Z,39.40
2018-06-22T17:48:22.929Z,38.30
2018-06-22T17:51:04.165Z,39.20
2018-06-22T17:53:43.940Z,39.10
2018-06-22T17:56:29.315Z,40.20
2018-06-22T17:59:13.479Z,40.90
2018-06-22T18:01:58.171Z,39.70
2018-06-22T18:04:41.021Z,40.10
2018-06-22T18:07:25.721Z,40.30
2018-06-22T18:10:11.061Z,39.80
2018-06-22T18:12:54.980Z,39.20
2018-06-22T18:15:34.716Z,39.80
2018-06-22T18:18:15.002Z,39.90
2018-06-22T18:20:55.450Z,38.70
2018-06-22T18:23:33.539Z,39.60
2018-06-22T18:26:13.657Z,40.00
2018-06-22T18:28:45.926Z,40.20
2018-06-22T18:31:26.284Z,40.90
2018-06-22T18:34:06.516Z,40.70
2018-06-22T18:36:46.298Z,41.00
2018-06-22T18:39:26.287Z,40.90
2018-06-22T18:42:05.567Z,41.10
2018-06-22T18:44:37.783Z,41.90
2018-06-22T18:47:09.474Z,42.40
2018-06-22T18:49:49.474Z,44.00
2018-06-22T18:52:34.300Z,41.20
2018-06-22T18:55:19.140Z,42.40
2018-06-22T18:58:03.920Z,41.20
2018-06-22T19:00:48.853Z,41.20
2018-06-22T19:03:33.472Z,41.40
2018-06-22T19:06:13.763Z,41.90
2018-06-22T19:08:55.071Z,42.00
2018-06-22T19:11:34.877Z,42.30
2018-06-22T19:14:15.198Z,43.30
2018-06-22T19:16:55.771Z,44.00
2018-06-22T19:19:36.147Z,44.70
2018-06-22T19:22:16.603Z,45.00
2018-06-22T19:24:57.615Z,45.70
2018-06-22T19:27:37.647Z,45.40
2018-06-22T19:30:18.400Z,46.10
2018-06-22T19:32:58.586Z,46.80
2018-06-22T19:35:38.904Z,46.70
2018-06-22T19:38:19.033Z,48.00
2018-06-22T19:40:59.266Z,48.80
2018-06-22T19:43:44.176Z,48.80
2018-06-22T19:46:28.744Z,48.50
2018-06-22T19:49:14.313Z,49.80
2018-06-22T19:52:00.704Z,50.10
2018-06-22T19:54:41.166Z,49.80
2018-06-22T19:57:20.774Z,50.10
2018-06-22T20:00:00.506Z,50.40
2018-06-22T20:02:40.652Z,50.80
2018-06-22T20:05:20.711Z,50.90
2018-06-22T20:08:02.631Z,51.00
2018-06-22T20:10:42.289Z,52.00
2018-06-22T20:13:22.406Z,52.90
2018-06-22T20:16:03.063Z,50.20
2018-06-22T20:18:44.303Z,51.50
2018-06-22T20:21:25.709Z,51.20
2018-06-22T20:24:07.584Z,51.20
2018-06-22T20:26:48.360Z,52.10
2018-06-22T20:29:30.551Z,50.90
2018-06-22T20:32:15.592Z,51.80
2018-06-22T20:34:53.394Z,51.50
2018-06-22T20:37:39.280Z,51.50
2018-06-22T20:40:25.330Z,51.20
2018-06-22T20:42:59.376Z,51.30
2018-06-22T20:45:36.415Z,51.30
2018-06-22T20:48:15.635Z,51.80
2018-06-22T20:50:56.014Z,51.50
2018-06-22T20:53:37.962Z,51.70
2018-06-22T20:56:17.721Z,52.20
2018-06-22T20:58:58.294Z,51.40
2018-06-22T21:01:38.440Z,51.80
2018-06-22T21:04:18.591Z,51.70
2018-06-22T21:06:58.614Z,52.00
2018-06-22T21:09:38.433Z,52.50
2018-06-22T21:12:13.694Z,51.40
2018-06-22T21:14:47.003Z,52.10
2018-06-22T21:17:25.147Z,52.30
2018-06-22T21:20:05.725Z,52.70
2018-06-22T21:22:45.719Z,53.10
2018-06-22T21:25:25.912Z,52.30
2018-06-22T21:28:10.795Z,52.50
2018-06-22T21:30:55.566Z,52.20
2018-06-22T21:33:40.340Z,52.10
2018-06-22T21:36:25.368Z,51.60
2018-06-22T21:39:07.956Z,52.00
2018-06-22T21:41:48.936Z,52.20
2018-06-22T21:44:20.237Z,52.30
2018-06-22T21:46:52.217Z,52.60
2018-06-22T21:49:33.334Z,53.70
2018-06-22T21:52:13.507Z,54.70
2018-06-22T21:54:55.340Z,54.80
2018-06-22T21:57:35.212Z,54.80
2018-06-22T22:00:17.811Z,55.10
2018-06-22T22:02:59.685Z,55.50
2018-06-22T22:05:39.850Z,55.00
2018-06-22T22:08:20.441Z,54.80
2018-06-22T22:11:05.750Z,55.10
2018-06-22T22:13:45.692Z,55.00
2018-06-22T22:16:26.005Z,56.00
2018-06-22T22:18:58.710Z,56.10
2018-06-22T22:21:30.310Z,56.20
2018-06-22T22:24:10.695Z,56.60
2018-06-22T22:26:50.695Z,56.60
2018-06-22T22:29:30.977Z,56.50
2018-06-22T22:32:11.365Z,57.00
2018-06-22T22:34:55.486Z,57.30
2018-06-22T22:37:27.952Z,57.20
2018-06-22T22:40:06.483Z,58.10
2018-06-22T22:42:47.194Z,58.60
2018-06-22T22:45:27.617Z,58.80
2018-06-22T22:48:08.090Z,59.40
2018-06-22T22:50:48.492Z,59.50
2018-06-22T22:53:28.444Z,60.90
2018-06-22T22:56:07.332Z,61.30
2018-06-22T22:58:47.008Z,62.60
2018-06-22T23:01:28.237Z,62.20
2018-06-22T23:04:00.151Z,62.60
2018-06-22T23:06:40.522Z,63.30
2018-06-22T23:09:20.166Z,64.10
2018-06-22T23:12:00.860Z,63.80
2018-06-22T23:14:40.390Z,64.20
2018-06-22T23:17:17.788Z,65.20
2018-06-22T23:19:58.105Z,65.00
2018-06-22T23:22:39.592Z,66.10
2018-06-22T23:25:12.453Z,65.50
2018-06-22T23:27:50.119Z,66.20
2018-06-22T23:30:27.593Z,64.70
2018-06-22T23:33:07.916Z,64.40
2018-06-22T23:35:48.655Z,64.20
2018-06-22T23:38:29.706Z,64.50
2018-06-22T23:41:09.631Z,64.90
2018-06-22T23:43:50.385Z,65.00
2018-06-22T23:46:30.734Z,65.70
2018-06-22T23:49:11.342Z,66.10
2018-06-22T23:51:51.182Z,65.80
2018-06-22T23:54:31.597Z,66.30
2018-06-22T23:57:11.282Z,67.50
2018-06-22T23:59:51.819Z,67.20
